createdAt,value
2019-02-27T00:03:01.554Z,190.00
2019-02-27T00:08:06.569Z,208.23
2019-02-27T00:13:11.621Z,200.37
2019-02-27T00:18:16.665Z,249.37
2019-02-27T00:23:23.865Z,275.50
2019-02-27T00:28:28.304Z,352.53
2019-02-27T00:33:33.313Z,404.93
2019-02-27T00:38:38.341Z,383.23
2019-02-27T00:43:43.341Z,336.20
2019-02-27T00:48:48.360Z,263.63
2019-02-27T00:53:55.949Z,283.13
2019-02-27T00:59:00.786Z,284.33
2019-02-27T01:04:06.080Z,269.47
2019-02-27T01:09:11.345Z,243.63
2019-02-27T01:14:16.360Z,225.03
2019-02-27T01:19:21.408Z,205.53
2019-02-27T01:24:26.435Z,222.50
2019-02-27T01:29:31.426Z,210.13
2019-02-27T01:34:37.598Z,224.63
2019-02-27T01:39:44.080Z,237.73
2019-02-27T01:44:49.195Z,245.83
2019-02-27T01:49:54.533Z,244.97
2019-02-27T01:54:59.554Z,248.40
2019-02-27T02:00:06.306Z,330.30
2019-02-27T02:05:11.351Z,389.67
2019-02-27T02:10:16.592Z,452.20
2019-02-27T02:15:49.667Z,502.77
2019-02-27T02:21:22.082Z,523.47
2019-02-27T02:27:11.128Z,539.87
2019-02-27T02:32:25.947Z,575.03
2019-02-27T02:38:03.282Z,625.70
2019-02-27T02:43:47.140Z,688.23
2019-02-27T02:49:35.152Z,681.63
2019-02-27T02:55:02.855Z,715.73
2019-02-27T03:00:30.143Z,744.57
2019-02-27T03:06:16.476Z,787.30
2019-02-27T03:11:54.753Z,814.43
2019-02-27T03:17:29.407Z,866.03
2019-02-27T03:22:46.063Z,885.73
2019-02-27T03:28:50.044Z,796.57
2019-02-27T03:34:33.245Z,755.20
2019-02-27T03:40:17.951Z,697.10
2019-02-27T03:45:43.862Z,606.83
2019-02-27T03:51:24.356Z,547.20
2019-02-27T03:57:02.214Z,470.83
2019-02-27T04:02:50.176Z,443.90
2019-02-27T04:08:28.168Z,400.83
2019-02-27T04:13:33.191Z,444.13
2019-02-27T04:18:36.804Z,467.57
2019-02-27T04:23:47.830Z,500.77
2019-02-27T04:28:48.472Z,545.50
2019-02-27T04:33:53.502Z,594.27
2019-02-27T04:39:00.056Z,566.43
2019-02-27T04:44:06.185Z,566.73
2019-02-27T04:49:11.418Z,592.43
2019-02-27T04:54:16.464Z,633.37
2019-02-27T04:59:21.700Z,656.53
2019-02-27T05:04:26.718Z,597.43
2019-02-27T05:09:34.112Z,616.57
2019-02-27T05:14:38.407Z,646.93
2019-02-27T05:19:43.781Z,639.73
2019-02-27T05:24:48.799Z,741.17
2019-02-27T05:29:54.657Z,697.17
2019-02-27T05:34:59.672Z,730.23
2019-02-27T05:40:05.594Z,591.70
2019-02-27T05:45:12.318Z,712.53
2019-02-27T05:50:17.334Z,713.40
2019-02-27T05:55:22.376Z,713.07
2019-02-27T06:00:27.450Z,691.63
2019-02-27T06:05:33.615Z,665.60
2019-02-27T06:10:39.165Z,671.17
2019-02-27T06:15:44.181Z,661.50
2019-02-27T06:20:49.201Z,523.50
2019-02-27T06:25:59.126Z,564.93
2019-02-27T06:31:02.579Z,481.43
2019-02-27T06:36:08.471Z,432.60
2019-02-27T06:41:15.772Z,533.43
2019-02-27T06:46:20.767Z,533.60
2019-02-27T06:51:25.909Z,652.60
2019-02-27T06:56:30.936Z,654.27
2019-02-27T07:01:35.967Z,661.00
2019-02-27T07:06:40.980Z,662.13
2019-02-27T07:11:48.151Z,673.37
2019-02-27T07:16:57.015Z,674.10
2019-02-27T07:21:59.322Z,637.70
2019-02-27T07:27:04.361Z,528.83
2019-02-27T07:32:09.480Z,489.73
2019-02-27T07:37:14.497Z,471.20
2019-02-27T07:42:19.536Z,524.60
2019-02-27T07:47:24.543Z,504.53
2019-02-27T07:52:32.339Z,688.67
2019-02-27T07:57:36.177Z,726.20
2019-02-27T08:02:41.199Z,681.00
2019-02-27T08:07:49.040Z,715.10
2019-02-27T08:12:55.653Z,751.93
2019-02-27T08:17:59.957Z,757.23
2019-02-27T08:23:06.823Z,702.93
2019-02-27T08:28:12.143Z,633.87
2019-02-27T08:33:17.166Z,618.27
2019-02-27T08:38:23.656Z,528.13
2019-02-27T08:43:30.403Z,592.70
2019-02-27T08:48:37.323Z,673.47
2019-02-27T08:53:42.632Z,763.63
2019-02-27T08:58:47.992Z,626.63
2019-02-27T09:03:53.123Z,568.30
2019-02-27T09:08:58.174Z,630.47
2019-02-27T09:14:03.247Z,379.43
2019-02-27T09:19:10.178Z,320.63
2019-02-27T09:24:15.282Z,425.97
2019-02-27T09:29:22.191Z,394.20
2019-02-27T09:34:27.475Z,382.67
2019-02-27T09:39:32.681Z,353.30
2019-02-27T09:44:39.445Z,415.27
2019-02-27T09:49:44.438Z,297.37
2019-02-27T09:54:49.724Z,321.40
2019-02-27T09:59:54.756Z,334.77
2019-02-27T10:05:03.080Z,372.87
2019-02-27T10:10:10.194Z,318.17
2019-02-27T10:15:13.493Z,336.30
2019-02-27T10:20:18.682Z,243.33
2019-02-27T10:25:23.705Z,246.43
2019-02-27T10:30:29.094Z,261.10
2019-02-27T10:35:34.983Z,324.50
2019-02-27T10:40:40.713Z,355.03
2019-02-27T10:45:48.795Z,352.00
2019-02-27T10:50:52.662Z,369.73
2019-02-27T10:55:58.055Z,361.37
2019-02-27T11:01:03.179Z,368.47
2019-02-27T11:06:10.057Z,365.83
2019-02-27T11:11:16.393Z,374.77
2019-02-27T11:16:22.120Z,361.17
2019-02-27T11:21:27.485Z,356.77
2019-02-27T11:26:33.363Z,354.63
2019-02-27T11:31:39.075Z,336.27
2019-02-27T11:36:44.186Z,319.47
2019-02-27T11:41:49.240Z,345.37
2019-02-27T11:46:58.660Z,319.90
2019-02-27T11:52:20.029Z,325.87
2019-02-27T11:57:27.324Z,332.00
2019-02-27T12:02:37.060Z,341.10
2019-02-27T12:07:38.473Z,364.27
2019-02-27T12:12:43.547Z,418.40
2019-02-27T12:17:48.910Z,421.50
2019-02-27T12:22:54.041Z,424.87
2019-02-27T12:27:59.322Z,446.60
2019-02-27T12:33:04.661Z,414.67
2019-02-27T12:38:11.397Z,430.37
2019-02-27T12:43:18.246Z,360.43
2019-02-27T12:48:23.345Z,337.27
2019-02-27T12:53:28.582Z,364.23
2019-02-27T12:58:33.616Z,352.37
2019-02-27T13:03:42.249Z,386.30
2019-02-27T13:08:45.358Z,366.37
2019-02-27T13:13:50.386Z,355.13
2019-02-27T13:18:55.567Z,334.97
2019-02-27T13:24:01.259Z,316.60
2019-02-27T13:29:07.611Z,320.20
2019-02-27T13:34:13.890Z,314.57
2019-02-27T13:39:19.597Z,338.60
2019-02-27T13:44:24.629Z,352.43
2019-02-27T13:49:29.657Z,372.97
2019-02-27T13:54:37.989Z,356.70
2019-02-27T13:59:42.183Z,356.83
2019-02-27T14:04:48.091Z,354.73
2019-02-27T14:09:53.295Z,312.57
2019-02-27T14:14:58.322Z,317.90
2019-02-27T14:20:05.262Z,359.97
2019-02-27T14:25:12.040Z,367.53
2019-02-27T14:30:19.557Z,359.70
2019-02-27T14:35:25.230Z,351.77
2019-02-27T14:40:30.356Z,354.17
2019-02-27T14:45:39.870Z,354.83
2019-02-27T14:50:42.098Z,352.20
2019-02-27T14:55:47.118Z,353.90
2019-02-27T15:00:52.209Z,369.17
2019-02-27T15:05:57.234Z,356.47
2019-02-27T15:11:02.314Z,380.47
2019-02-27T15:16:07.389Z,391.30
2019-02-27T15:21:13.239Z,419.60
2019-02-27T15:26:18.992Z,427.53
2019-02-27T15:31:24.066Z,414.80
2019-02-27T15:36:30.216Z,451.77
2019-02-27T15:41:36.001Z,464.00
2019-02-27T15:46:41.180Z,470.73
2019-02-27T15:51:46.259Z,493.33
2019-02-27T15:56:51.294Z,486.70
2019-02-27T16:02:02.214Z,484.03
2019-02-27T16:07:03.083Z,486.70
2019-02-27T16:12:08.097Z,486.90
2019-02-27T16:17:13.136Z,459.30
2019-02-27T16:22:18.205Z,455.50
2019-02-27T16:27:23.240Z,472.50
2019-02-27T16:32:28.318Z,454.67
2019-02-27T16:37:33.441Z,445.23
2019-02-27T16:42:39.227Z,462.37
2019-02-27T16:47:45.011Z,452.80
2019-02-27T16:52:51.097Z,451.90
2019-02-27T16:57:57.391Z,434.77
2019-02-27T17:03:02.911Z,430.87
2019-02-27T17:08:07.963Z,424.13
2019-02-27T17:13:15.495Z,412.40
2019-02-27T17:18:19.716Z,403.87
2019-02-27T17:23:24.763Z,407.63
2019-02-27T17:28:29.802Z,413.23
2019-02-27T17:33:35.193Z,413.30
2019-02-27T17:38:41.796Z,416.13
2019-02-27T17:43:46.916Z,406.20
2019-02-27T17:48:51.961Z,403.30
2019-02-27T17:53:57.914Z,400.80
2019-02-27T17:59:05.307Z,375.27
2019-02-27T18:04:14.181Z,376.93
2019-02-27T18:09:17.430Z,345.27
2019-02-27T18:14:22.454Z,325.57
2019-02-27T18:19:27.490Z,314.50
2019-02-27T18:24:34.183Z,274.07
2019-02-27T18:29:41.280Z,294.87
2019-02-27T18:34:46.159Z,304.77
2019-02-27T18:39:51.365Z,261.43
2019-02-27T18:44:56.400Z,278.23
2019-02-27T18:50:01.456Z,288.00
2019-02-27T18:55:06.905Z,310.93
2019-02-27T19:00:16.266Z,420.13
2019-02-27T19:05:21.730Z,519.70
2019-02-27T19:10:26.799Z,606.37
2019-02-27T19:15:32.405Z,673.47
2019-02-27T19:20:39.653Z,725.37
2019-02-27T19:25:44.918Z,706.70
2019-02-27T19:30:49.958Z,675.73
2019-02-27T19:35:56.403Z,633.67
2019-02-27T19:41:04.123Z,621.13
2019-02-27T19:46:10.065Z,594.13
2019-02-27T19:51:17.074Z,565.30
2019-02-27T19:56:22.098Z,540.13
2019-02-27T20:01:27.253Z,477.10
2019-02-27T20:06:32.247Z,445.77
2019-02-27T20:11:39.929Z,411.80
2019-02-27T20:16:44.024Z,394.67
2019-02-27T20:21:49.065Z,444.53
2019-02-27T20:26:54.863Z,450.97
2019-02-27T20:32:01.779Z,437.33
2019-02-27T20:37:07.324Z,502.50
2019-02-27T20:42:13.748Z,508.20
2019-02-27T20:47:21.850Z,522.20
2019-02-27T20:52:26.156Z,567.47
2019-02-27T20:57:31.185Z,536.70
2019-02-27T21:02:36.264Z,531.17
2019-02-27T21:07:41.633Z,545.67
2019-02-27T21:12:54.086Z,520.47
2019-02-27T21:17:57.814Z,539.10
2019-02-27T21:23:01.262Z,531.93
2019-02-27T21:28:07.579Z,553.07
2019-02-27T21:33:13.040Z,577.23
2019-02-27T21:38:18.103Z,590.07
2019-02-27T21:43:25.586Z,608.83
2019-02-27T21:48:29.971Z,616.70
2019-02-27T21:53:35.225Z,619.40
2019-02-27T21:58:40.456Z,662.40
2019-02-27T22:03:46.578Z,711.50
2019-02-27T22:08:51.760Z,726.00
2019-02-27T22:13:56.815Z,723.70
2019-02-27T22:19:02.001Z,821.77
2019-02-27T22:24:07.393Z,842.40
2019-02-27T22:29:12.722Z,802.50
2019-02-27T22:34:19.240Z,794.03
2019-02-27T22:39:24.677Z,774.27
2019-02-27T22:44:30.333Z,766.57
2019-02-27T22:49:35.602Z,732.53
2019-02-27T22:54:40.758Z,720.63
2019-02-27T22:59:46.636Z,729.73
2019-02-27T23:04:51.920Z,749.93
2019-02-27T23:09:57.491Z,766.33
2019-02-27T23:15:03.457Z,754.13
2019-02-27T23:20:12.053Z,756.77
2019-02-27T23:25:17.135Z,738.80
2019-02-27T23:30:24.573Z,693.93
2019-02-27T23:35:34.424Z,706.53
2019-02-27T23:40:39.462Z,730.83
2019-02-27T23:45:45.227Z,727.37
2019-02-27T23:50:50.477Z,719.93
2019-02-27T23:55:55.528Z,709.80
